createdAt,value
2017-04-27T00:09:22.000Z,20.6
2017-04-27T00:26:09.000Z,20.6
2017-04-27T00:42:56.000Z,20.6
2017-04-27T00:59:43.000Z,20.6
2017-04-27T01:16:30.000Z,20.3
2017-04-27T01:33:17.000Z,20.3
2017-04-27T01:50:04.000Z,20.3
2017-04-27T02:06:51.000Z,20.3
2017-04-27T02:23:38.000Z,20.3
2017-04-27T02:40:25.000Z,20.3
2017-04-27T02:57:11.000Z,20
2017-04-27T03:13:58.000Z,20
2017-04-27T03:30:45.000Z,20
2017-04-27T03:47:32.000Z,20
2017-04-27T04:04:18.000Z,20
2017-04-27T04:21:04.000Z,20
2017-04-27T04:37:51.000Z,20
2017-04-27T04:54:37.000Z,20
2017-04-27T05:11:24.000Z,20.3
2017-04-27T05:28:11.000Z,20.6
2017-04-27T05:43:18.000Z,21.3
2017-04-27T06:00:07.000Z,21.6
2017-04-27T06:16:55.000Z,21.9
2017-04-27T06:33:43.000Z,21.9
2017-04-27T06:50:32.000Z,21.9
2017-04-27T07:07:22.000Z,21.9
2017-04-27T07:24:11.000Z,21.9
2017-04-27T07:41:00.000Z,21.9
2017-04-27T07:57:48.000Z,21.6
2017-04-27T08:14:37.000Z,21.9
2017-04-27T08:31:26.000Z,21.9
2017-04-27T08:48:14.000Z,21.9
2017-04-27T09:05:03.000Z,21.9
2017-04-27T09:21:52.000Z,22.2
2017-04-27T09:38:41.000Z,22.2
2017-04-27T09:55:31.000Z,22.2
2017-04-27T10:12:19.000Z,22.2
2017-04-27T10:29:09.000Z,22.6
2017-04-27T10:45:59.000Z,22.6
2017-04-27T11:02:49.000Z,22.9
2017-04-27T11:19:39.000Z,22.9
2017-04-27T11:36:29.000Z,22.9
2017-04-27T11:53:19.000Z,22.9
2017-04-27T12:10:09.000Z,22.9
2017-04-27T12:26:59.000Z,23.2
2017-04-27T12:43:49.000Z,22.9
2017-04-27T13:00:40.000Z,23.2
2017-04-27T13:17:30.000Z,23.2
2017-04-27T13:34:21.000Z,22.9
2017-04-27T13:51:11.000Z,22.9
2017-04-27T13:57:54.000Z,22.9
2017-04-27T14:06:19.000Z,22.9
2017-04-27T14:23:09.000Z,22.9
2017-04-27T14:40:00.000Z,22.9
2017-04-27T14:56:49.000Z,22.6
2017-04-27T15:00:11.000Z,22.2
2017-04-27T15:05:14.000Z,21.6
2017-04-27T15:22:02.000Z,21.3
2017-04-27T15:38:50.000Z,21.3
2017-04-27T15:52:16.000Z,21.3
2017-04-27T16:09:04.000Z,21
2017-04-27T16:25:52.000Z,21.3
2017-04-27T16:42:40.000Z,21.3
2017-04-27T16:59:28.000Z,21.3
2017-04-27T17:16:16.000Z,21.3
2017-04-27T17:21:18.000Z,21.3
2017-04-27T17:38:07.000Z,21
2017-04-27T17:54:54.000Z,20.6
2017-04-27T18:11:42.000Z,20.6
2017-04-27T18:28:29.000Z,21
2017-04-27T18:45:17.000Z,21
2017-04-27T19:02:05.000Z,21
2017-04-27T19:18:54.000Z,21
2017-04-27T19:35:42.000Z,21
2017-04-27T19:52:30.000Z,21
2017-04-27T20:09:18.000Z,21
2017-04-27T20:26:06.000Z,21
2017-04-27T20:42:54.000Z,21
2017-04-27T20:59:42.000Z,21
2017-04-27T21:16:29.000Z,21
2017-04-27T21:33:16.000Z,21
2017-04-27T21:50:04.000Z,20.6
2017-04-27T22:06:51.000Z,20.6
2017-04-27T22:23:38.000Z,20.6
2017-04-27T22:40:25.000Z,20.6
2017-04-27T22:57:11.000Z,20.3
2017-04-27T23:13:59.000Z,20.3
2017-04-27T23:30:45.000Z,20.3
2017-04-27T23:47:31.000Z,20.3
